Pishan, China
Current Conditions -  °F | °C
As of 5:00 AM on Tuesday 23 Dec 2014 (Local Time) from ZWSH Reporting Station
Clear Clear  
Wind Chill:   Ceiling: Unl
Heat Index: 18°   Visibility: 4mi
Dew Point:   Wind: 7mph
Humidity: 68%   Direction: 320°NW
Pressure: 30.09"   Gusts: NA
Location:  37.62°N, 78.28°E
Report Text: ZWSH 222100Z 32003MPS 6000 NSC M08/M13 Q1019 NOSIG
Loading
Personal Weather Stations






























Interactive Weather Map New forecast layout! Learn more

10-Day Weather Forecast

Advertisements
Track Severe Weather on mobile